V.b Algeciras — ECCR — position and weather

sailwx.info

Track history (hours):
 
Tides and Currents Weather Stations Pressure Air Temp Water Temp Dewpoint Dewpoint Depression Visibility Wind Speed Wind Dir Waves Ship Positions

V.b Algeciras

Last reported at 2017-Sep-21 02:53 UTC. Time now 2017-Sep-23 18:33 UTC.
Position N 36°08' W 005°26'.

Length 30 m; draft 7 m.

Type: Tug. MMSI: 224121250.

Date/timePositionNaut miles runAvg speedWind from/ knotsBaromVisibWave heightAir tempDewpointWater temp
2017-Sep-21 02:53N 36°08' W 005°26'0 0.6
2017-Sep-21 02:30N 36°08' W 005°26'1 0.3
2017-Sep-20 22:18N 36°08' W 005°24'1 1.8
2017-Sep-20 21:55N 36°08' W 005°25'0 0.1
2017-Sep-20 21:28N 36°08' W 005°25'1 0.0
2017-Sep-19 19:52N 36°09' W 005°25'1 0.6
2017-Sep-19 18:49N 36°09' W 005°26'0 0.0
2017-Sep-19 18:30N 36°09' W 005°26'0 0.7
2017-Sep-19 18:00N 36°08' W 005°26'0 0.2
2017-Sep-19 16:52N 36°08' W 005°26'1 1.8
2017-Sep-19 16:30N 36°09' W 005°26'  
2017-Sep-15 13:30N 36°08' W 005°25'0 0.0
2017-Sep-14 21:56N 36°08' W 005°25'0 0.0
2017-Sep-14 12:25N 36°08' W 005°25'0 0.0
2017-Sep-13 18:54N 36°08' W 005°25'0 0.0
2017-Sep-13 00:19N 36°08' W 005°25'0 0.0
2017-Sep-12 23:55N 36°08' W 005°25'0 0.0
2017-Sep-12 23:19N 36°08' W 005°25'0 1.2
2017-Sep-12 23:00N 36°08' W 005°25'0 0.1
2017-Sep-12 21:01N 36°07' W 005°25'0 0.0
2017-Sep-12 20:57N 36°07' W 005°25'2 1.9
2017-Sep-12 20:04N 36°06' W 005°25'0 1.5
2017-Sep-12 19:45N 36°06' W 005°25'2 0.5
2017-Sep-12 16:40N 36°08' W 005°25'0 0.7
2017-Sep-12 16:30N 36°08' W 005°25'0 0.1
2017-Sep-12 13:50N 36°08' W 005°25'0 0.0
2017-Sep-12 10:47N 36°08' W 005°25'3 2.6
2017-Sep-12 09:45N 36°10' W 005°24'0 0.1
2017-Sep-12 09:29N 36°10' W 005°24'1 1.4
2017-Sep-12 08:58N 36°10' W 005°23'3 3.3
2017-Sep-12 08:03N 36°08' W 005°25'0 1.3
2017-Sep-12 07:49N 36°08' W 005°26'0 0.0
2017-Sep-12 07:30N 36°08' W 005°26'0 0.8
2017-Sep-12 07:00N 36°08' W 005°25'0 0.6
2017-Sep-12 06:22N 36°08' W 005°26'0 0.0
2017-Sep-12 05:56N 36°08' W 005°26'0 0.0
2017-Sep-12 05:30N 36°08' W 005°26'0 0.0
2017-Sep-12 05:00N 36°08' W 005°26'0 0.0
2017-Sep-12 04:30N 36°08' W 005°26'0 0.0
2017-Sep-12 04:00N 36°08' W 005°26'0 0.6
2017-Sep-12 03:30N 36°08' W 005°26'0 0.6
2017-Sep-12 03:00N 36°08' W 005°26'0 0.5
2017-Sep-12 02:30N 36°08' W 005°26'0 0.5
2017-Sep-12 02:00N 36°08' W 005°26'0 0.8
2017-Sep-12 01:30N 36°08' W 005°25'0 0.2
2017-Sep-11 23:51N 36°08' W 005°26'0 0.0
2017-Sep-11 23:30N 36°08' W 005°26'0 0.0
2017-Sep-11 23:00N 36°08' W 005°26'0 0.8
2017-Sep-11 22:30N 36°08' W 005°25'0 0.5
2017-Sep-11 22:00N 36°08' W 005°25'0 0.7
2017-Sep-11 21:27N 36°08' W 005°26'0 0.0
2017-Sep-11 20:51N 36°08' W 005°26'0 0.0
2017-Sep-11 20:30N 36°08' W 005°26'0 0.0
2017-Sep-11 20:00N 36°08' W 005°26'0 0.0
2017-Sep-11 19:29N 36°08' W 005°26'0 0.2
2017-Sep-11 18:08N 36°08' W 005°26'1 0.0
2017-Sep-11 05:39N 36°08' W 005°25'  
Track history (hours):
 
Tides and Currents Weather Stations Pressure Air Temp Water Temp Dewpoint Dewpoint Depression Visibility Wind Speed Wind Dir Waves Ship Positions

V.b Algeciras

Last reported at 2017-Sep-21 02:53 UTC. Time now 2017-Sep-23 18:33 UTC.
Position N 36°08' W 005°26'.

Length 30 m; draft 7 m.

Type: Tug. MMSI: 224121250.

Date/timePositionNaut miles runAvg speedWind from/ knotsBaromVisibWave heightAir tempDewpointWater temp
2017-Sep-21 02:53N 36°08' W 005°26'0 0.6
2017-Sep-21 02:30N 36°08' W 005°26'1 0.3
2017-Sep-20 22:18N 36°08' W 005°24'1 1.8
2017-Sep-20 21:55N 36°08' W 005°25'0 0.1
2017-Sep-20 21:28N 36°08' W 005°25'1 0.0
2017-Sep-19 19:52N 36°09' W 005°25'1 0.6
2017-Sep-19 18:49N 36°09' W 005°26'0 0.0
2017-Sep-19 18:30N 36°09' W 005°26'0 0.7
2017-Sep-19 18:00N 36°08' W 005°26'0 0.2
2017-Sep-19 16:52N 36°08' W 005°26'1 1.8
2017-Sep-19 16:30N 36°09' W 005°26'  
2017-Sep-15 13:30N 36°08' W 005°25'0 0.0
2017-Sep-14 21:56N 36°08' W 005°25'0 0.0
2017-Sep-14 12:25N 36°08' W 005°25'0 0.0
2017-Sep-13 18:54N 36°08' W 005°25'0 0.0
2017-Sep-13 00:19N 36°08' W 005°25'0 0.0
2017-Sep-12 23:55N 36°08' W 005°25'0 0.0
2017-Sep-12 23:19N 36°08' W 005°25'0 1.2
2017-Sep-12 23:00N 36°08' W 005°25'0 0.1
2017-Sep-12 21:01N 36°07' W 005°25'0 0.0
2017-Sep-12 20:57N 36°07' W 005°25'2 1.9
2017-Sep-12 20:04N 36°06' W 005°25'0 1.5
2017-Sep-12 19:45N 36°06' W 005°25'2 0.5
2017-Sep-12 16:40N 36°08' W 005°25'0 0.7
2017-Sep-12 16:30N 36°08' W 005°25'0 0.1
2017-Sep-12 13:50N 36°08' W 005°25'0 0.0
2017-Sep-12 10:47N 36°08' W 005°25'3 2.6
2017-Sep-12 09:45N 36°10' W 005°24'0 0.1
2017-Sep-12 09:29N 36°10' W 005°24'1 1.4
2017-Sep-12 08:58N 36°10' W 005°23'3 3.3
2017-Sep-12 08:03N 36°08' W 005°25'0 1.3
2017-Sep-12 07:49N 36°08' W 005°26'0 0.0
2017-Sep-12 07:30N 36°08' W 005°26'0 0.8
2017-Sep-12 07:00N 36°08' W 005°25'0 0.6
2017-Sep-12 06:22N 36°08' W 005°26'0 0.0
2017-Sep-12 05:56N 36°08' W 005°26'0 0.0
2017-Sep-12 05:30N 36°08' W 005°26'0 0.0
2017-Sep-12 05:00N 36°08' W 005°26'0 0.0
2017-Sep-12 04:30N 36°08' W 005°26'0 0.0
2017-Sep-12 04:00N 36°08' W 005°26'0 0.6
2017-Sep-12 03:30N 36°08' W 005°26'0 0.6
2017-Sep-12 03:00N 36°08' W 005°26'0 0.5
2017-Sep-12 02:30N 36°08' W 005°26'0 0.5
2017-Sep-12 02:00N 36°08' W 005°26'0 0.8
2017-Sep-12 01:30N 36°08' W 005°25'0 0.2
2017-Sep-11 23:51N 36°08' W 005°26'0 0.0
2017-Sep-11 23:30N 36°08' W 005°26'0 0.0
2017-Sep-11 23:00N 36°08' W 005°26'0 0.8
2017-Sep-11 22:30N 36°08' W 005°25'0 0.5
2017-Sep-11 22:00N 36°08' W 005°25'0 0.7
2017-Sep-11 21:27N 36°08' W 005°26'0 0.0
2017-Sep-11 20:51N 36°08' W 005°26'0 0.0
2017-Sep-11 20:30N 36°08' W 005°26'0 0.0
2017-Sep-11 20:00N 36°08' W 005°26'0 0.0
2017-Sep-11 19:29N 36°08' W 005°26'0 0.2
2017-Sep-11 18:08N 36°08' W 005°26'1 0.0
2017-Sep-11 05:39N 36°08' W 005°25'  

Dump ship's entire track history